Back to Top

Language: 

My Weather Underground Personal Weather Station Historical Data with Graphs...

Delerius Weather Station Historical Data
Daily Summary for August 15, 2017 Units:  Metric    English   Both
« Previous Day
Next Day »
Daily Weekly Monthly Yearly Custom
  High: Low: Average:
Temperature: 22.2 °C 11.2 °C 17.1 °C
Dew Point: 13.5 °C 8.9 °C 11.7 °C
Humidity: 92 % 48 % 72 %
Wind Speed: 22.5 km/h 0 km/h 11.4 km/h
Wind Gust: 41.8 km/h - -
Wind:- - WSW
Pressure: 1017.5 hPa 1009.4 hPa -
Precipitation: 0 mm    
Historical Graphs
 
 
Tabular Data for August 15, 2017
Time Temperature Dew Point Pressure Wind Wind Speed Wind Gust Humidity Rainfall Rate (Hourly) solar Conditions
00:04 15.7 °C 13.4 °C 1011.1 hPa SSW 14.5 km/h 24.1 km/h 86 % 0 mm 0 W/m2
00:09 15.6 °C 13.3 °C 1011.1 hPa SSW 16.1 km/h 30.6 km/h 86 % 0 mm 0 W/m2
00:14 15.6 °C 13.4 °C 1011.1 hPa SSW 14.5 km/h 30.6 km/h 87 % 0 mm 0 W/m2
00:19 15.4 °C 13.2 °C 1011.1 hPa SSW 14.5 km/h 25.7 km/h 87 % 0 mm 0 W/m2
00:24 15.3 °C 13.3 °C 1011.1 hPa SSW 12.9 km/h 25.7 km/h 88 % 0 mm 0 W/m2
00:29 15.3 °C 13.5 °C 1011.1 hPa South 9.7 km/h 20.9 km/h 89 % 0 mm 0 W/m2
00:34 15.2 °C 13.4 °C 1011.1 hPa South 11.3 km/h 25.7 km/h 89 % 0 mm 0 W/m2
00:35 15.2 °C 13.4 °C 1011.1 hPa South 11.3 km/h 25.7 km/h 89 % 0 mm 0 W/m2
00:40 15.1 °C 13.4 °C 1011.1 hPa South 11.3 km/h 25.7 km/h 90 % 0 mm 0 W/m2
00:45 15.1 °C 13.4 °C 1011.1 hPa SSW 9.7 km/h 19.3 km/h 90 % 0 mm 0 W/m2
00:50 15 °C 13.4 °C 1011.1 hPa South 9.7 km/h 19.3 km/h 90 % 0 mm 0 W/m2
00:56 14.9 °C 13.3 °C 1011.1 hPa South 6.4 km/h 14.5 km/h 90 % 0 mm 0 W/m2
01:00 14.9 °C 13.3 °C 1011.1 hPa South 8 km/h 17.7 km/h 90 % 0 mm 0 W/m2
01:05 14.9 °C 13.4 °C 1011.1 hPa South 9.7 km/h 17.7 km/h 91 % 0 mm 0 W/m2
01:11 14.9 °C 13.4 °C 1011.1 hPa South 9.7 km/h 16.1 km/h 91 % 0 mm 0 W/m2
01:16 14.9 °C 13.4 °C 1010.7 hPa South 9.7 km/h 16.1 km/h 91 % 0 mm 0 W/m2
01:21 14.8 °C 13.2 °C 1010.7 hPa South 11.3 km/h 19.3 km/h 90 % 0 mm 0 W/m2
01:26 14.8 °C 13.3 °C 1011.1 hPa South 9.7 km/h 19.3 km/h 91 % 0 mm 0 W/m2
01:30 14.8 °C 13.2 °C 1010.7 hPa South 11.3 km/h 19.3 km/h 90 % 0 mm 0 W/m2
01:36 14.9 °C 13.3 °C 1010.7 hPa South 11.3 km/h 19.3 km/h 90 % 0 mm 0 W/m2
01:41 14.9 °C 13.3 °C 1010.7 hPa South 9.7 km/h 17.7 km/h 90 % 0 mm 0 W/m2
01:46 14.8 °C 13 °C 1010.7 hPa SSE 8 km/h 14.5 km/h 89 % 0 mm 0 W/m2
01:51 14.8 °C 13 °C 1010.7 hPa South 11.3 km/h 24.1 km/h 89 % 0 mm 0 W/m2
01:56 14.8 °C 13 °C 1010.7 hPa South 12.9 km/h 29 km/h 89 % 0 mm 0 W/m2
02:01 14.8 °C 13 °C 1010.7 hPa South 11.3 km/h 29 km/h 89 % 0 mm 0 W/m2
02:06 14.8 °C 13 °C 1010.7 hPa South 8 km/h 14.5 km/h 89 % 0 mm 0 W/m2
02:11 14.7 °C 12.9 °C 1010.7 hPa South 6.4 km/h 19.3 km/h 89 % 0 mm 0 W/m2
02:16 14.7 °C 12.9 °C 1010.4 hPa South 6.4 km/h 19.3 km/h 89 % 0 mm 0 W/m2
02:21 14.7 °C 12.9 °C 1010.4 hPa SSW 8 km/h 16.1 km/h 89 % 0 mm 0 W/m2
02:26 14.7 °C 12.9 °C 1010.4 hPa SSW 6.4 km/h 16.1 km/h 89 % 0 mm 0 W/m2
02:31 14.7 °C 12.9 °C 1010.7 hPa SSW 6.4 km/h 12.9 km/h 89 % 0 mm 0 W/m2
02:36 14.7 °C 12.9 °C 1010.7 hPa SSW 6.4 km/h 11.3 km/h 89 % 0 mm 0 W/m2
02:41 14.7 °C 12.9 °C 1010.4 hPa SSW 6.4 km/h 14.5 km/h 89 % 0 mm 0 W/m2
02:46 14.7 °C 12.9 °C 1010.4 hPa South 4.8 km/h 14.5 km/h 89 % 0 mm 0 W/m2
02:51 14.6 °C 12.8 °C 1010.4 hPa SSE 4.8 km/h 9.7 km/h 89 % 0 mm 0 W/m2
02:56 14.6 °C 12.8 °C 1010.4 hPa SSE 6.4 km/h 12.9 km/h 89 % 0 mm 0 W/m2
03:01 14.4 °C 12.6 °C 1010.4 hPa SSE 6.4 km/h 12.9 km/h 89 % 0 mm 0 W/m2
03:06 14.3 °C 12.7 °C 1010.4 hPa SSE 4.8 km/h 11.3 km/h 90 % 0 mm 0 W/m2
03:11 14.3 °C 12.7 °C 1010.4 hPa SSE 3.2 km/h 11.3 km/h 90 % 0 mm 0 W/m2
03:16 14.3 °C 12.7 °C 1010.4 hPa South 1.6 km/h 12.9 km/h 90 % 0 mm 0 W/m2
03:21 14.2 °C 12.6 °C 1010.4 hPa SSE 3.2 km/h 12.9 km/h 90 % 0 mm 0 W/m2
03:26 14.1 °C 12.5 °C 1010.4 hPa SE 3.2 km/h 11.3 km/h 90 % 0 mm 0 W/m2
03:31 14.1 °C 12.5 °C 1010.4 hPa SE 4.8 km/h 12.9 km/h 90 % 0 mm 0 W/m2
03:36 14 °C 12.4 °C 1010 hPa SSE 4.8 km/h 12.9 km/h 90 % 0 mm 0 W/m2
03:41 13.9 °C 12.3 °C 1010 hPa SSE 3.2 km/h 9.7 km/h 90 % 0 mm 0 W/m2
03:46 13.8 °C 12.2 °C 1010 hPa SSE 1.6 km/h 8 km/h 90 % 0 mm 0 W/m2
03:51 13.8 °C 12.3 °C 1010 hPa SSE 3.2 km/h 12.9 km/h 91 % 0 mm 0 W/m2
03:56 13.8 °C 12.3 °C 1010 hPa SSE 6.4 km/h 12.9 km/h 91 % 0 mm 0 W/m2
04:01 13.8 °C 12.3 °C 1010 hPa South 8 km/h 20.9 km/h 91 % 0 mm 0 W/m2
04:06 13.8 °C 12.3 °C 1009.7 hPa South 9.7 km/h 20.9 km/h 91 % 0 mm 0 W/m2
04:11 13.9 °C 12.4 °C 1009.7 hPa South 9.7 km/h 17.7 km/h 91 % 0 mm 0 W/m2
04:16 13.9 °C 12.4 °C 1009.7 hPa South 9.7 km/h 17.7 km/h 91 % 0 mm 0 W/m2
04:21 13.9 °C 12.4 °C 1009.7 hPa South 9.7 km/h 19.3 km/h 91 % 0 mm 0 W/m2
04:26 13.9 °C 12.4 °C 1009.7 hPa South 9.7 km/h 19.3 km/h 91 % 0 mm 0 W/m2
04:27 13.9 °C 12.4 °C 1009.7 hPa South 9.7 km/h 19.3 km/h 91 % 0 mm 0 W/m2
04:31 13.9 °C 12.4 °C 1009.7 hPa South 8 km/h 17.7 km/h 91 % 0 mm 0 W/m2
04:36 13.8 °C 12.3 °C 1009.4 hPa South 8 km/h 19.3 km/h 91 % 0 mm 0 W/m2
04:41 13.8 °C 12.3 °C 1009.7 hPa South 8 km/h 19.3 km/h 91 % 0 mm 0 W/m2
04:46 13.8 °C 12.3 °C 1009.7 hPa South 6.4 km/h 12.9 km/h 91 % 0 mm 0 W/m2
04:51 13.8 °C 12.3 °C 1009.7 hPa South 4.8 km/h 12.9 km/h 91 % 0 mm 0 W/m2
04:56 13.7 °C 12.3 °C 1009.7 hPa South 3.2 km/h 11.3 km/h 91 % 0 mm 0 W/m2
05:01 13.7 °C 12.3 °C 1009.7 hPa SSE 1.6 km/h 9.7 km/h 91 % 0 mm 0 W/m2
05:06 13.6 °C 12.2 °C 1009.7 hPa SSE 1.6 km/h 8 km/h 91 % 0 mm 0 W/m2
05:11 13.5 °C 12.1 °C 1009.7 hPa Calm   8 km/h 91 % 0 mm 0 W/m2
05:16 13.5 °C 12.2 °C 1009.7 hPa SE 1.6 km/h 8 km/h 92 % 0 mm 0 W/m2
05:21 13.5 °C 12.2 °C 1010 hPa ESE 3.2 km/h 8 km/h 92 % 0 mm 0 W/m2
05:26 13.5 °C 12.2 °C 1010 hPa ESE 1.6 km/h 6.4 km/h 92 % 0 mm 0 W/m2
05:31 13.5 °C 12.2 °C 1010 hPa East 1.6 km/h 8 km/h 92 % 0 mm 0 W/m2
05:36 13.4 °C 12.1 °C 1010 hPa East 1.6 km/h 8 km/h 92 % 0 mm 0 W/m2
05:41 13.5 °C 12.2 °C 1010 hPa East 1.6 km/h 8 km/h 92 % 0 mm 0 W/m2
05:46 13.4 °C 12.1 °C 1010 hPa ESE 3.2 km/h 8 km/h 92 % 0 mm 0 W/m2
05:51 13.5 °C 12.2 °C 1010 hPa SSE 4.8 km/h 12.9 km/h 92 % 0 mm 5 W/m2
05:56 13.6 °C 12.3 °C 1010 hPa South 6.4 km/h 12.9 km/h 92 % 0 mm 7 W/m2
06:01 13.6 °C 12.3 °C 1010 hPa SSW 8 km/h 16.1 km/h 92 % 0 mm 11 W/m2
06:06 13.6 °C 12.3 °C 1010 hPa SSW 9.7 km/h 16.1 km/h 92 % 0 mm 11 W/m2
06:11 13.7 °C 12.4 °C 1010 hPa SW 9.7 km/h 14.5 km/h 92 % 0 mm 12 W/m2
06:16 13.7 °C 12.4 °C 1010 hPa SW 9.7 km/h 16.1 km/h 92 % 0 mm 14 W/m2
06:21 13.8 °C 12.5 °C 1010 hPa SW 9.7 km/h 16.1 km/h 92 % 0 mm 16 W/m2
06:23 13.8 °C 12.5 °C 1010 hPa SW 9.7 km/h 16.1 km/h 92 % 0 mm 18 W/m2
06:28 13.9 °C 12.4 °C 1010 hPa SW 11.3 km/h 20.9 km/h 91 % 0 mm 19 W/m2
06:33 14.1 °C 12.7 °C 1010 hPa SW 11.3 km/h 20.9 km/h 91 % 0 mm 19 W/m2
06:38 14.1 °C 12.5 °C 1010 hPa WSW 9.7 km/h 16.1 km/h 90 % 0 mm 23 W/m2
06:43 14.2 °C 12.4 °C 1010.4 hPa WSW 9.7 km/h 16.1 km/h 89 % 0 mm 35 W/m2
06:48 14.2 °C 12.4 °C 1010.4 hPa WSW 8 km/h 16.1 km/h 89 % 0 mm 32 W/m2
06:53 14.3 °C 12.3 °C 1010.4 hPa West 8 km/h 17.7 km/h 88 % 0 mm 26 W/m2
06:58 14.3 °C 12.3 °C 1010.4 hPa West 9.7 km/h 17.7 km/h 88 % 0 mm 76 W/m2
07:03 14.4 °C 12.4 °C 1010.4 hPa WSW 8 km/h 17.7 km/h 88 % 0 mm 40 W/m2
07:08 14.6 °C 12.4 °C 1010.4 hPa WSW 9.7 km/h 20.9 km/h 87 % 0 mm 56 W/m2
07:13 14.7 °C 12.6 °C 1010.4 hPa West 11.3 km/h 20.9 km/h 87 % 0 mm 107 W/m2
07:18 14.8 °C 12.7 °C 1010.7 hPa West 11.3 km/h 17.7 km/h 87 % 0 mm 199 W/m2
07:23 15.1 °C 12.9 °C 1010.7 hPa West 11.3 km/h 25.7 km/h 87 % 0 mm 188 W/m2
07:28 15.2 °C 12.9 °C 1010.7 hPa West 14.5 km/h 25.7 km/h 86 % 0 mm 200 W/m2
07:33 15.3 °C 12.8 °C 1010.7 hPa West 16.1 km/h 24.1 km/h 85 % 0 mm 213 W/m2
07:38 15.5 °C 12.8 °C 1010.7 hPa West 14.5 km/h 29 km/h 84 % 0 mm 223 W/m2
07:43 15.6 °C 12.7 °C 1010.7 hPa West 14.5 km/h 29 km/h 83 % 0 mm 237 W/m2
07:48 15.7 °C 12.6 °C 1010.7 hPa West 14.5 km/h 29 km/h 82 % 0 mm 253 W/m2
07:53 15.8 °C 12.7 °C 1010.7 hPa West 14.5 km/h 29 km/h 82 % 0 mm 269 W/m2
07:58 15.9 °C 12.8 °C 1011.1 hPa West 14.5 km/h 24.1 km/h 82 % 0 mm 285 W/m2
08:03 16.1 °C 13 °C 1011.1 hPa West 16.1 km/h 29 km/h 82 % 0 mm 297 W/m2
08:08 16.2 °C 12.9 °C 1011.1 hPa West 19.3 km/h 33.8 km/h 81 % 0 mm 308 W/m2
08:13 16.3 °C 12.8 °C 1011.1 hPa West 19.3 km/h 33.8 km/h 80 % 0 mm 323 W/m2
08:18 16.3 °C 12.7 °C 1011.1 hPa West 17.7 km/h 30.6 km/h 79 % 0 mm 339 W/m2
08:23 16.5 °C 12.8 °C 1011.1 hPa West 17.7 km/h 30.6 km/h 79 % 0 mm 350 W/m2
08:28 16.6 °C 12.9 °C 1011.1 hPa West 16.1 km/h 30.6 km/h 79 % 0 mm 366 W/m2
08:33 16.6 °C 12.9 °C 1010.7 hPa West 17.7 km/h 33.8 km/h 79 % 0 mm 381 W/m2
08:38 16.7 °C 13.1 °C 1010.7 hPa West 20.9 km/h 35.4 km/h 79 % 0 mm 399 W/m2
08:43 16.7 °C 12.8 °C 1011.1 hPa West 20.9 km/h 35.4 km/h 78 % 0 mm 408 W/m2
08:48 16.8 °C 12.7 °C 1011.1 hPa West 22.5 km/h 41.8 km/h 77 % 0 mm 425 W/m2
08:53 16.9 °C 12.8 °C 1011.1 hPa West 22.5 km/h 41.8 km/h 77 % 0 mm 436 W/m2
08:58 16.9 °C 12.7 °C 1011.1 hPa West 22.5 km/h 38.6 km/h 76 % 0 mm 452 W/m2
09:09 17.2 °C 12.9 °C 1011.1 hPa West 20.9 km/h 35.4 km/h 76 % 0 mm 482 W/m2
09:14 17.2 °C 12.7 °C 1011.1 hPa West 20.9 km/h 35.4 km/h 75 % 0 mm 492 W/m2
09:19 17.3 °C 12.8 °C 1011.1 hPa West 19.3 km/h 35.4 km/h 75 % 0 mm 506 W/m2
09:24 17.3 °C 12.4 °C 1011.1 hPa West 20.9 km/h 37 km/h 73 % 0 mm 520 W/m2
09:29 17.4 °C 12.3 °C 1011.4 hPa West 22.5 km/h 40.2 km/h 72 % 0 mm 529 W/m2
09:34 17.6 °C 12.7 °C 1011.4 hPa West 22.5 km/h 40.2 km/h 73 % 0 mm 540 W/m2
09:39 17.7 °C 12.6 °C 1011.4 hPa West 19.3 km/h 33.8 km/h 72 % 0 mm 555 W/m2
09:44 17.9 °C 12.8 °C 1011.4 hPa WSW 16.1 km/h 29 km/h 72 % 0 mm 610 W/m2
09:49 17.9 °C 12.1 °C 1011.7 hPa West 19.3 km/h 32.2 km/h 69 % 0 mm 578 W/m2
09:54 18 °C 12.4 °C 1011.7 hPa West 20.9 km/h 32.2 km/h 70 % 0 mm 587 W/m2
09:59 18.2 °C 12.6 °C 1011.7 hPa West 20.9 km/h 32.2 km/h 70 % 0 mm 606 W/m2
10:04 18.1 °C 12.3 °C 1011.7 hPa West 19.3 km/h 33.8 km/h 69 % 0 mm 615 W/m2
10:09 18.2 °C 12.4 °C 1012.1 hPa West 20.9 km/h 38.6 km/h 69 % 0 mm 622 W/m2
10:14 18.2 °C 12.4 °C 1012.1 hPa West 22.5 km/h 38.6 km/h 69 % 0 mm 647 W/m2
10:19 18.3 °C 12.3 °C 1012.1 hPa West 20.9 km/h 35.4 km/h 68 % 0 mm 668 W/m2
10:24 18.4 °C 12.4 °C 1012.1 hPa West 19.3 km/h 30.6 km/h 68 % 0 mm 661 W/m2
10:29 18.7 °C 12.7 °C 1012.1 hPa West 16.1 km/h 29 km/h 68 % 0 mm 679 W/m2
10:34 18.9 °C 12.9 °C 1012.1 hPa West 11.3 km/h 20.9 km/h 68 % 0 mm 684 W/m2
10:39 19.2 °C 12.9 °C 1012.1 hPa West 12.9 km/h 20.9 km/h 67 % 0 mm 803 W/m2
10:44 19.2 °C 12.4 °C 1012.1 hPa West 16.1 km/h 30.6 km/h 65 % 0 mm 761 W/m2
10:49 19.2 °C 12.4 °C 1012.1 hPa West 16.1 km/h 30.6 km/h 65 % 0 mm 821 W/m2
10:54 19.3 °C 12.3 °C 1012.1 hPa West 16.1 km/h 30.6 km/h 64 % 0 mm 160 W/m2
10:59 19 °C 12.1 °C 1012.1 hPa West 17.7 km/h 33.8 km/h 64 % 0 mm 125 W/m2
11:04 18.9 °C 11.9 °C 1012.1 hPa West 17.7 km/h 33.8 km/h 64 % 0 mm 812 W/m2
11:09 19.1 °C 12.1 °C 1012.1 hPa West 16.1 km/h 29 km/h 64 % 0 mm 220 W/m2
11:12 19.1 °C 12.1 °C 1012.1 hPa West 16.1 km/h 29 km/h 64 % 0 mm 281 W/m2
11:17 19.1 °C 12.4 °C 1012.1 hPa WSW 16.1 km/h 29 km/h 65 % 0 mm 916 W/m2
11:22 19.3 °C 12.1 °C 1012.4 hPa WSW 16.1 km/h 29 km/h 63 % 0 mm 278 W/m2
11:27 19.3 °C 12.1 °C 1012.4 hPa West 14.5 km/h 25.7 km/h 63 % 0 mm 318 W/m2
11:32 19.3 °C 12.3 °C 1012.4 hPa West 16.1 km/h 30.6 km/h 64 % 0 mm 250 W/m2
11:37 19.2 °C 12 °C 1012.4 hPa West 19.3 km/h 35.4 km/h 63 % 0 mm 816 W/m2
11:42 19.4 °C 12.2 °C 1012.4 hPa West 17.7 km/h 35.4 km/h 63 % 0 mm 796 W/m2
11:47 19.6 °C 11.9 °C 1012.4 hPa West 16.1 km/h 30.6 km/h 61 % 0 mm 823 W/m2
11:52 19.8 °C 11.8 °C 1012.4 hPa West 17.7 km/h 32.2 km/h 60 % 0 mm 879 W/m2
11:57 19.9 °C 11.4 °C 1012.4 hPa West 19.3 km/h 32.2 km/h 58 % 0 mm 162 W/m2
12:02 19.9 °C 11.9 °C 1012.4 hPa West 16.1 km/h 32.2 km/h 60 % 0 mm 868 W/m2
12:07 20.2 °C 11.7 °C 1012.4 hPa West 16.1 km/h 38.6 km/h 58 % 0 mm 893 W/m2
12:12 20.2 °C 11.7 °C 1012.4 hPa West 19.3 km/h 38.6 km/h 58 % 0 mm 998 W/m2
12:17 20.4 °C 12.1 °C 1012.4 hPa West 17.7 km/h 32.2 km/h 59 % 0 mm 872 W/m2
12:22 20.6 °C 11.8 °C 1012.4 hPa West 17.7 km/h 30.6 km/h 57 % 0 mm 812 W/m2
12:27 20.4 °C 11.8 °C 1012.4 hPa West 17.7 km/h 30.6 km/h 58 % 0 mm 877 W/m2
12:32 20.4 °C 11.1 °C 1012.4 hPa West 17.7 km/h 30.6 km/h 55 % 0 mm 886 W/m2
12:37 20.7 °C 12.1 °C 1012.4 hPa West 17.7 km/h 37 km/h 58 % 0 mm 1004 W/m2
12:42 20.7 °C 11.9 °C 1012.8 hPa West 19.3 km/h 37 km/h 57 % 0 mm 854 W/m2
12:47 20.9 °C 12.1 °C 1012.8 hPa West 19.3 km/h 35.4 km/h 57 % 0 mm 893 W/m2
12:52 21 °C 11.9 °C 1012.8 hPa West 19.3 km/h 35.4 km/h 56 % 0 mm 861 W/m2
12:57 21.2 °C 11.8 °C 1012.8 hPa West 17.7 km/h 35.4 km/h 55 % 0 mm 838 W/m2
13:02 21.2 °C 10.9 °C 1012.8 hPa West 17.7 km/h 33.8 km/h 52 % 0 mm 838 W/m2
13:07 21.2 °C 11.2 °C 1012.8 hPa West 17.7 km/h 33.8 km/h 53 % 0 mm 854 W/m2
13:12 21.3 °C 11.9 °C 1012.8 hPa West 14.5 km/h 25.7 km/h 55 % 0 mm 870 W/m2
13:17 21.4 °C 11.7 °C 1012.8 hPa West 14.5 km/h 29 km/h 54 % 0 mm 914 W/m2
13:22 21.4 °C 11.7 °C 1012.8 hPa West 17.7 km/h 29 km/h 54 % 0 mm 884 W/m2
13:27 21.5 °C 11.2 °C 1012.8 hPa West 17.7 km/h 33.8 km/h 52 % 0 mm 967 W/m2
13:32 21.6 °C 11.3 °C 1012.8 hPa West 19.3 km/h 35.4 km/h 52 % 0 mm 1002 W/m2
13:37 21.8 °C 11.2 °C 1012.8 hPa West 17.7 km/h 35.4 km/h 51 % 0 mm 1111 W/m2
13:42 21.9 °C 11.3 °C 1012.8 hPa WSW 14.5 km/h 30.6 km/h 51 % 0 mm 979 W/m2
13:47 22.2 °C 11 °C 1013.1 hPa West 17.7 km/h 35.4 km/h 49 % 0 mm 192 W/m2
13:52 21.9 °C 10.4 °C 1013.1 hPa WNW 19.3 km/h 35.4 km/h 48 % 0 mm 921 W/m2
13:57 22 °C 11.1 °C 1013.1 hPa West 17.7 km/h 29 km/h 50 % 0 mm 932 W/m2
14:02 22.2 °C 11.3 °C 1013.1 hPa West 16.1 km/h 30.6 km/h 50 % 0 mm 926 W/m2
14:08 22.2 °C 11.3 °C 1013.1 hPa West 19.3 km/h 33.8 km/h 50 % 0 mm 889 W/m2
14:13 22.1 °C 11.5 °C 1013.1 hPa West 19.3 km/h 33.8 km/h 51 % 0 mm 851 W/m2
14:18 22.1 °C 11.2 °C 1013.1 hPa West 20.9 km/h 35.4 km/h 50 % 0 mm 860 W/m2
14:23 21.8 °C 10.9 °C 1013.1 hPa West 20.9 km/h 35.4 km/h 50 % 0 mm 847 W/m2
14:28 21.6 °C 11.6 °C 1013.1 hPa West 19.3 km/h 32.2 km/h 53 % 0 mm 788 W/m2
14:33 21.7 °C 11.1 °C 1013.1 hPa West 19.3 km/h 32.2 km/h 51 % 0 mm 791 W/m2
14:38 21.7 °C 10.8 °C 1013.4 hPa West 19.3 km/h 32.2 km/h 50 % 0 mm 802 W/m2
14:43 21.5 °C 10.6 °C 1013.4 hPa West 20.9 km/h 35.4 km/h 50 % 0 mm 809 W/m2
14:48 21.4 °C 10.6 °C 1013.4 hPa West 19.3 km/h 35.4 km/h 50 % 0 mm 824 W/m2
14:53 21.6 °C 10.7 °C 1013.4 hPa West 17.7 km/h 35.4 km/h 50 % 0 mm 858 W/m2
14:58 21.7 °C 11.4 °C 1013.4 hPa WNW 17.7 km/h 30.6 km/h 52 % 0 mm 842 W/m2
15:03 21.8 °C 11.2 °C 1013.4 hPa WNW 17.7 km/h 30.6 km/h 51 % 0 mm 807 W/m2
15:08 21.9 °C 11 °C 1013.4 hPa WNW 19.3 km/h 33.8 km/h 50 % 0 mm 823 W/m2
15:13 22.2 °C 11.3 °C 1013.4 hPa WNW 17.7 km/h 33.8 km/h 50 % 0 mm 884 W/m2
15:18 22.2 °C 11.3 °C 1013.4 hPa WNW 17.7 km/h 32.2 km/h 50 % 0 mm 795 W/m2
15:23 21.9 °C 11.3 °C 1013.4 hPa WNW 19.3 km/h 32.2 km/h 51 % 0 mm 308 W/m2
15:28 21.6 °C 11 °C 1013.4 hPa WNW 17.7 km/h 32.2 km/h 51 % 0 mm 250 W/m2
15:33 21.3 °C 11.3 °C 1013.4 hPa WNW 16.1 km/h 32.2 km/h 53 % 0 mm 441 W/m2
15:38 21.2 °C 11.2 °C 1013.4 hPa West 12.9 km/h 22.5 km/h 53 % 0 mm 264 W/m2
15:40 21.1 °C 10.8 °C 1013.4 hPa West 12.9 km/h 22.5 km/h 52 % 0 mm 264 W/m2
15:45 21.1 °C 10.8 °C 1013.4 hPa West 16.1 km/h 25.7 km/h 52 % 0 mm 287 W/m2
15:50 20.9 °C 11.2 °C 1013.8 hPa West 17.7 km/h 30.6 km/h 54 % 0 mm 213 W/m2
15:55 20.8 °C 11.2 °C 1013.8 hPa West 17.7 km/h 30.6 km/h 54 % 0 mm 221 W/m2
16:00 20.8 °C 11.7 °C 1013.8 hPa West 14.5 km/h 29 km/h 56 % 0 mm 789 W/m2
16:05 21.1 °C 11.4 °C 1013.8 hPa West 16.1 km/h 30.6 km/h 54 % 0 mm 320 W/m2
16:10 21.1 °C 11.2 °C 1013.8 hPa West 16.1 km/h 30.6 km/h 53 % 0 mm 698 W/m2
16:15 21 °C 11.1 °C 1013.8 hPa WSW 16.1 km/h 30.6 km/h 53 % 0 mm 148 W/m2
16:20 20.8 °C 11.2 °C 1013.8 hPa West 17.7 km/h 32.2 km/h 54 % 0 mm 719 W/m2
16:25 20.9 °C 11.5 °C 1013.8 hPa West 16.1 km/h 32.2 km/h 55 % 0 mm 737 W/m2
16:30 21 °C 11.3 °C 1014.1 hPa West 14.5 km/h 30.6 km/h 54 % 0 mm 652 W/m2
16:35 21 °C 11.1 °C 1013.8 hPa West 14.5 km/h 30.6 km/h 53 % 0 mm 132 W/m2
16:40 20.8 °C 10.9 °C 1014.1 hPa West 16.1 km/h 25.7 km/h 53 % 0 mm 169 W/m2
16:45 20.7 °C 11.1 °C 1014.1 hPa West 16.1 km/h 25.7 km/h 54 % 0 mm 186 W/m2
16:50 20.6 °C 10.9 °C 1014.1 hPa West 16.1 km/h 33.8 km/h 54 % 0 mm 156 W/m2
16:55 20.5 °C 11.4 °C 1013.8 hPa West 16.1 km/h 33.8 km/h 56 % 0 mm 548 W/m2
17:00 20.6 °C 10.9 °C 1014.1 hPa West 17.7 km/h 30.6 km/h 54 % 0 mm 508 W/m2
17:05 20.5 °C 10.9 °C 1014.1 hPa West 19.3 km/h 30.6 km/h 54 % 0 mm 79 W/m2
17:10 20.4 °C 11.1 °C 1014.1 hPa West 17.7 km/h 29 km/h 55 % 0 mm 499 W/m2
17:15 20.5 °C 11.2 °C 1014.1 hPa West 17.7 km/h 29 km/h 55 % 0 mm 461 W/m2
17:20 20.6 °C 10.9 °C 1014.1 hPa West 17.7 km/h 29 km/h 54 % 0 mm 88 W/m2
17:25 20.4 °C 11.3 °C 1014.1 hPa West 16.1 km/h 29 km/h 56 % 0 mm 459 W/m2
17:30 20.4 °C 11.3 °C 1014.1 hPa West 16.1 km/h 29 km/h 56 % 0 mm 417 W/m2
17:35 20.6 °C 11.5 °C 1014.1 hPa West 14.5 km/h 29 km/h 56 % 0 mm 404 W/m2
17:40 20.7 °C 11.6 °C 1014.1 hPa West 12.9 km/h 24.1 km/h 56 % 0 mm 388 W/m2
17:45 20.8 °C 11.4 °C 1014.1 hPa West 14.5 km/h 25.7 km/h 55 % 0 mm 376 W/m2
17:50 20.8 °C 11.7 °C 1014.4 hPa West 14.5 km/h 25.7 km/h 56 % 0 mm 364 W/m2
17:55 20.8 °C 11.7 °C 1014.4 hPa WNW 14.5 km/h 24.1 km/h 56 % 0 mm 346 W/m2
18:00 20.8 °C 11.7 °C 1014.4 hPa WNW 16.1 km/h 30.6 km/h 56 % 0 mm 353 W/m2
18:05 20.5 °C 11.4 °C 1014.4 hPa West 17.7 km/h 32.2 km/h 56 % 0 mm 322 W/m2
18:10 20.4 °C 11.6 °C 1014.4 hPa West 16.1 km/h 32.2 km/h 57 % 0 mm 294 W/m2
18:16 20.3 °C 11.5 °C 1014.4 hPa West 14.5 km/h 32.2 km/h 57 % 0 mm 281 W/m2
18:21 20.3 °C 11.8 °C 1014.4 hPa West 12.9 km/h 29 km/h 58 % 0 mm 267 W/m2
18:26 20.2 °C 11.4 °C 1014.8 hPa West 14.5 km/h 25.7 km/h 57 % 0 mm 253 W/m2
18:31 20 °C 11.2 °C 1014.8 hPa West 16.1 km/h 25.7 km/h 57 % 0 mm 236 W/m2
18:36 19.9 °C 10.8 °C 1014.8 hPa West 16.1 km/h 29 km/h 56 % 0 mm 221 W/m2
18:41 19.9 °C 11.1 °C 1014.8 hPa West 14.5 km/h 29 km/h 57 % 0 mm 209 W/m2
18:46 19.8 °C 11.1 °C 1014.8 hPa West 14.5 km/h 22.5 km/h 57 % 0 mm 195 W/m2
18:51 19.8 °C 11.1 °C 1014.8 hPa West 14.5 km/h 22.5 km/h 57 % 0 mm 181 W/m2
18:56 19.7 °C 10.9 °C 1014.8 hPa West 12.9 km/h 22.5 km/h 57 % 0 mm 171 W/m2
19:01 19.6 °C 10.8 °C 1015.1 hPa West 11.3 km/h 22.5 km/h 57 % 0 mm 156 W/m2
19:06 19.6 °C 10.8 °C 1015.1 hPa West 11.3 km/h 22.5 km/h 57 % 0 mm 146 W/m2
19:11 19.4 °C 10.4 °C 1015.1 hPa West 11.3 km/h 22.5 km/h 56 % 0 mm 134 W/m2
19:16 19.3 °C 10.1 °C 1015.1 hPa West 11.3 km/h 17.7 km/h 55 % 0 mm 123 W/m2
19:21 19.3 °C 10.6 °C 1015.1 hPa West 11.3 km/h 17.7 km/h 57 % 0 mm 109 W/m2
19:26 19.2 °C 9.9 °C 1015.1 hPa West 11.3 km/h 19.3 km/h 55 % 0 mm 100 W/m2
19:31 19.2 °C 10.2 °C 1015.5 hPa West 12.9 km/h 19.3 km/h 56 % 0 mm 88 W/m2
19:36 19.1 °C 10.1 °C 1015.5 hPa West 11.3 km/h 19.3 km/h 56 % 0 mm 76 W/m2
19:41 18.9 °C 9.9 °C 1015.5 hPa West 9.7 km/h 19.3 km/h 56 % 0 mm 63 W/m2
19:46 18.7 °C 10 °C 1015.5 hPa West 9.7 km/h 22.5 km/h 57 % 0 mm 33 W/m2
19:51 18.4 °C 10 °C 1015.5 hPa WNW 12.9 km/h 22.5 km/h 58 % 0 mm 33 W/m2
19:56 18.2 °C 10.1 °C 1015.5 hPa WNW 11.3 km/h 22.5 km/h 59 % 0 mm 19 W/m2
20:01 18.1 °C 9.9 °C 1015.8 hPa West 9.7 km/h 14.5 km/h 59 % 0 mm 19 W/m2
20:06 17.9 °C 10 °C 1015.8 hPa West 8 km/h 12.9 km/h 60 % 0 mm 16 W/m2
20:11 17.8 °C 10.2 °C 1015.8 hPa West 6.4 km/h 12.9 km/h 61 % 0 mm 14 W/m2
20:16 17.6 °C 10.2 °C 1015.8 hPa West 4.8 km/h 8 km/h 62 % 0 mm 12 W/m2
20:21 17.4 °C 10.3 °C 1015.8 hPa West 3.2 km/h 8 km/h 63 % 0 mm 11 W/m2
20:26 17.2 °C 10.1 °C 1016.1 hPa West 1.6 km/h 8 km/h 63 % 0 mm 7 W/m2
20:31 17.1 °C 10.4 °C 1016.1 hPa West 1.6 km/h 6.4 km/h 65 % 0 mm 5 W/m2
20:36 16.8 °C 10.2 °C 1016.1 hPa Calm   3.2 km/h 65 % 0 mm 0 W/m2
20:41 16.6 °C 10.2 °C 1016.1 hPa Calm   1.6 km/h 66 % 0 mm 0 W/m2
20:46 16.4 °C 10.1 °C 1016.1 hPa Calm     66 % 0 mm 0 W/m2
20:51 16.2 °C 10.1 °C 1016.1 hPa Calm     67 % 0 mm 0 W/m2
20:56 16.1 °C 10.2 °C 1016.1 hPa Calm   1.6 km/h 68 % 0 mm 0 W/m2
21:01 15.8 °C 10.1 °C 1016.1 hPa Calm   1.6 km/h 69 % 0 mm 0 W/m2
21:06 15.6 °C 9.9 °C 1016.5 hPa Calm   3.2 km/h 69 % 0 mm 0 W/m2
21:11 15.4 °C 9.9 °C 1016.5 hPa West 1.6 km/h 8 km/h 70 % 0 mm 0 W/m2
21:16 15.3 °C 10.1 °C 1016.5 hPa West 3.2 km/h 8 km/h 71 % 0 mm 0 W/m2
21:21 15.1 °C 10.1 °C 1016.5 hPa West 4.8 km/h 8 km/h 72 % 0 mm 0 W/m2
21:26 15 °C 10 °C 1016.5 hPa West 4.8 km/h 8 km/h 72 % 0 mm 0 W/m2
21:31 14.9 °C 10.1 °C 1016.5 hPa West 4.8 km/h 9.7 km/h 73 % 0 mm 0 W/m2
21:36 14.8 °C 10 °C 1016.5 hPa West 6.4 km/h 9.7 km/h 73 % 0 mm 0 W/m2
21:42 14.7 °C 10.1 °C 1016.5 hPa WNW 6.4 km/h 9.7 km/h 74 % 0 mm 0 W/m2
21:47 14.6 °C 10.2 °C 1016.8 hPa WNW 3.2 km/h 8 km/h 75 % 0 mm 0 W/m2
21:52 14.4 °C 10 °C 1016.8 hPa WNW 1.6 km/h 6.4 km/h 75 % 0 mm 0 W/m2
21:57 14.3 °C 10.3 °C 1016.8 hPa Calm   3.2 km/h 77 % 0 mm 0 W/m2
22:02 14 °C 10.2 °C 1016.8 hPa Calm   1.6 km/h 78 % 0 mm 0 W/m2
22:07 13.8 °C 10.2 °C 1017.2 hPa Calm     79 % 0 mm 0 W/m2
22:12 13.5 °C 9.9 °C 1017.2 hPa Calm     79 % 0 mm 0 W/m2
22:17 13.3 °C 9.9 °C 1017.2 hPa Calm   1.6 km/h 80 % 0 mm 0 W/m2
22:22 13.2 °C 10 °C 1017.2 hPa Calm   1.6 km/h 81 % 0 mm 0 W/m2
22:27 13 °C 9.8 °C 1017.2 hPa Calm     81 % 0 mm 0 W/m2
22:32 12.8 °C 9.6 °C 1017.5 hPa Calm     81 % 0 mm 0 W/m2
22:37 12.7 °C 9.7 °C 1017.5 hPa Calm   1.6 km/h 82 % 0 mm 0 W/m2
22:42 12.6 °C 9.6 °C 1017.5 hPa Calm   1.6 km/h 82 % 0 mm 0 W/m2
22:47 12.4 °C 9.6 °C 1017.5 hPa Calm   1.6 km/h 83 % 0 mm 0 W/m2
22:52 12.3 °C 9.5 °C 1017.5 hPa Calm   1.6 km/h 83 % 0 mm 0 W/m2
22:57 12.2 °C 9.4 °C 1017.5 hPa Calm   1.6 km/h 83 % 0 mm 0 W/m2
23:02 12.2 °C 9.4 °C 1017.5 hPa Calm     83 % 0 mm 0 W/m2
23:07 12.1 °C 9.3 °C 1017.5 hPa Calm     83 % 0 mm 0 W/m2
23:12 12 °C 9.4 °C 1017.5 hPa Calm     84 % 0 mm 0 W/m2
23:17 11.9 °C 9.3 °C 1017.5 hPa Calm     84 % 0 mm 0 W/m2
23:22 11.8 °C 9.2 °C 1017.5 hPa Calm     84 % 0 mm 0 W/m2
23:27 11.7 °C 9.3 °C 1017.5 hPa WNW 1.6 km/h 6.4 km/h 85 % 0 mm 0 W/m2
23:32 11.7 °C 9.3 °C 1017.5 hPa WNW 1.6 km/h 6.4 km/h 85 % 0 mm 0 W/m2
23:37 11.5 °C 9.1 °C 1017.5 hPa Calm   6.4 km/h 85 % 0 mm 0 W/m2
23:42 11.3 °C 9.1 °C 1017.5 hPa Calm   3.2 km/h 86 % 0 mm 0 W/m2
23:45 11.3 °C 9.1 °C 1017.5 hPa Calm   3.2 km/h 86 % 0 mm 0 W/m2
23:50 11.2 °C 8.9 °C 1017.5 hPa WNW 1.6 km/h 3.2 km/h 86 % 0 mm 0 W/m2
23:55 11.2 °C 9.1 °C 1017.5 hPa WNW 1.6 km/h 8 km/h 87 % 0 mm 0 W/m2
Delerius-Weather
Compliments of Weather Underground - 2.25 mb

Data updates at regular intervals.